sensor_id;sensor_type;location;lat;lon;timestamp;temperature;humidity
65404;DHT22;52014;52.088;5.096;2023-05-10T03:47:59;14.90;99.90
65404;DHT22;52014;52.088;5.096;2023-05-10T03:50:25;14.80;99.90
65404;DHT22;52014;52.088;5.096;2023-05-10T03:52:51;14.80;99.90
65404;DHT22;52014;52.088;5.096;2023-05-10T03:55:16;14.80;99.90
65404;DHT22;52014;52.088;5.096;2023-05-10T03:57:42;14.80;99.90
65404;DHT22;52014;52.088;5.096;2023-05-10T04:00:08;14.80;99.90
65404;DHT22;52014;52.088;5.096;2023-05-10T04:02:33;14.80;99.90
65404;DHT22;52014;52.088;5.096;2023-05-10T04:04:59;14.80;99.90
65404;DHT22;52014;52.088;5.096;2023-05-10T04:07:24;14.80;99.90
65404;DHT22;52014;52.088;5.096;2023-05-10T04:09:50;14.80;99.90
65404;DHT22;52014;52.088;5.096;2023-05-10T04:12:15;14.80;99.90
65404;DHT22;52014;52.088;5.096;2023-05-10T04:14:41;14.90;99.90
65404;DHT22;52014;52.088;5.096;2023-05-10T04:17:06;14.80;99.90
65404;DHT22;52014;52.088;5.096;2023-05-10T04:19:31;14.90;99.90
65404;DHT22;52014;52.088;5.096;2023-05-10T04:21:57;14.80;99.90
65404;DHT22;52014;52.088;5.096;2023-05-10T04:24:23;14.80;99.90
65404;DHT22;52014;52.088;5.096;2023-05-10T04:26:48;14.90;99.90
65404;DHT22;52014;52.088;5.096;2023-05-10T04:29:14;14.80;99.90
65404;DHT22;52014;52.088;5.096;2023-05-10T04:31:39;14.90;99.90
65404;DHT22;52014;52.088;5.096;2023-05-10T04:34:05;14.90;99.90
65404;DHT22;52014;52.088;5.096;2023-05-10T04:36:30;14.90;99.90
65404;DHT22;52014;52.088;5.096;2023-05-10T04:38:57;14.80;99.90
65404;DHT22;52014;52.088;5.096;2023-05-10T04:41:23;14.80;99.90
65404;DHT22;52014;52.088;5.096;2023-05-10T04:43:49;14.90;99.90
65404;DHT22;52014;52.088;5.096;2023-05-10T04:46:14;14.90;99.90
65404;DHT22;52014;52.088;5.096;2023-05-10T04:48:40;14.80;99.90
65404;DHT22;52014;52.088;5.096;2023-05-10T04:51:05;14.80;99.90
65404;DHT22;52014;52.088;5.096;2023-05-10T04:53:31;14.90;99.90
65404;DHT22;52014;52.088;5.096;2023-05-10T04:55:57;14.90;99.90
65404;DHT22;52014;52.088;5.096;2023-05-10T04:58:22;14.90;99.90
65404;DHT22;52014;52.088;5.096;2023-05-10T05:00:48;14.80;99.90
65404;DHT22;52014;52.088;5.096;2023-05-10T05:03:13;14.80;99.90
65404;DHT22;52014;52.088;5.096;2023-05-10T05:05:39;14.70;99.90
65404;DHT22;52014;52.088;5.096;2023-05-10T05:08:04;14.80;99.90
65404;DHT22;52014;52.088;5.096;2023-05-10T05:10:30;14.80;99.90
65404;DHT22;52014;52.088;5.096;2023-05-10T05:12:55;14.80;99.90
65404;DHT22;52014;52.088;5.096;2023-05-10T05:15:21;14.80;99.90
65404;DHT22;52014;52.088;5.096;2023-05-10T05:17:46;14.80;99.90
65404;DHT22;52014;52.088;5.096;2023-05-10T05:20:12;14.80;99.90
65404;DHT22;52014;52.088;5.096;2023-05-10T05:22:38;14.70;99.90
65404;DHT22;52014;52.088;5.096;2023-05-10T05:25:04;14.70;99.90
65404;DHT22;52014;52.088;5.096;2023-05-10T05:27:29;14.80;99.90
65404;DHT22;52014;52.088;5.096;2023-05-10T05:29:55;14.80;99.90
65404;DHT22;52014;52.088;5.096;2023-05-10T05:32:20;14.70;99.90
65404;DHT22;52014;52.088;5.096;2023-05-10T05:34:46;14.70;99.90
65404;DHT22;52014;52.088;5.096;2023-05-10T05:37:15;14.60;99.90
65404;DHT22;52014;52.088;5.096;2023-05-10T05:39:41;14.60;99.90
65404;DHT22;52014;52.088;5.096;2023-05-10T05:42:08;14.60;99.90
65404;DHT22;52014;52.088;5.096;2023-05-10T05:44:33;14.60;99.90
65404;DHT22;52014;52.088;5.096;2023-05-10T05:46:58;14.50;99.90
65404;DHT22;52014;52.088;5.096;2023-05-10T05:49:24;14.50;99.90
65404;DHT22;52014;52.088;5.096;2023-05-10T05:51:49;14.50;99.90
65404;DHT22;52014;52.088;5.096;2023-05-10T05:54:15;14.40;99.90
65404;DHT22;52014;52.088;5.096;2023-05-10T05:56:41;14.40;99.90
65404;DHT22;52014;52.088;5.096;2023-05-10T05:59:06;14.40;99.90
65404;DHT22;52014;52.088;5.096;2023-05-10T06:01:32;14.50;99.90
65404;DHT22;52014;52.088;5.096;2023-05-10T06:03:57;14.60;99.90
65404;DHT22;52014;52.088;5.096;2023-05-10T06:06:22;14.60;99.90
65404;DHT22;52014;52.088;5.096;2023-05-10T06:08:48;14.60;99.90
65404;DHT22;52014;52.088;5.096;2023-05-10T06:11:13;14.50;99.90
65404;DHT22;52014;52.088;5.096;2023-05-10T06:13:39;14.50;99.90
65404;DHT22;52014;52.088;5.096;2023-05-10T06:16:06;14.40;99.90
65404;DHT22;52014;52.088;5.096;2023-05-10T06:18:32;14.40;99.90
65404;DHT22;52014;52.088;5.096;2023-05-10T06:20:57;14.30;99.90
65404;DHT22;52014;52.088;5.096;2023-05-10T06:23:23;14.40;99.90
65404;DHT22;52014;52.088;5.096;2023-05-10T06:25:48;14.40;99.90
65404;DHT22;52014;52.088;5.096;2023-05-10T06:28:14;14.40;99.90
65404;DHT22;52014;52.088;5.096;2023-05-10T06:30:39;14.50;99.90
65404;DHT22;52014;52.088;5.096;2023-05-10T06:33:04;14.60;99.90
65404;DHT22;52014;52.088;5.096;2023-05-10T06:35:30;14.60;99.90
65404;DHT22;52014;52.088;5.096;2023-05-10T06:37:57;14.50;99.90
65404;DHT22;52014;52.088;5.096;2023-05-10T06:40:23;14.60;99.90
65404;DHT22;52014;52.088;5.096;2023-05-10T06:42:48;14.50;99.90
65404;DHT22;52014;52.088;5.096;2023-05-10T06:45:14;14.60;99.90
65404;DHT22;52014;52.088;5.096;2023-05-10T06:47:40;14.60;99.90
65404;DHT22;52014;52.088;5.096;2023-05-10T06:50:06;14.60;99.90
65404;DHT22;52014;52.088;5.096;2023-05-10T06:52:32;14.60;99.90
65404;DHT22;52014;52.088;5.096;2023-05-10T06:54:57;14.70;99.90
65404;DHT22;52014;52.088;5.096;2023-05-10T06:57:23;14.70;99.90
65404;DHT22;52014;52.088;5.096;2023-05-10T06:59:49;14.80;99.90
65404;DHT22;52014;52.088;5.096;2023-05-10T07:02:15;14.80;99.90
65404;DHT22;52014;52.088;5.096;2023-05-10T07:04:40;15.00;99.90
65404;DHT22;52014;52.088;5.096;2023-05-10T07:07:06;14.90;99.90
65404;DHT22;52014;52.088;5.096;2023-05-10T07:09:31;14.90;99.90
65404;DHT22;52014;52.088;5.096;2023-05-10T07:11:57;14.90;99.90
65404;DHT22;52014;52.088;5.096;2023-05-10T07:14:22;14.80;99.90
65404;DHT22;52014;52.088;5.096;2023-05-10T07:16:48;14.60;99.90
65404;DHT22;52014;52.088;5.096;2023-05-10T07:19:14;14.70;99.90
65404;DHT22;52014;52.088;5.096;2023-05-10T07:21:40;14.70;99.90
65404;DHT22;52014;52.088;5.096;2023-05-10T07:24:07;14.80;99.90
65404;DHT22;52014;52.088;5.096;2023-05-10T07:26:33;14.70;99.90
65404;DHT22;52014;52.088;5.096;2023-05-10T07:28:58;14.80;99.90
65404;DHT22;52014;52.088;5.096;2023-05-10T07:31:24;14.70;99.90
65404;DHT22;52014;52.088;5.096;2023-05-10T07:33:49;14.80;99.90
65404;DHT22;52014;52.088;5.096;2023-05-10T07:36:15;14.80;99.90
65404;DHT22;52014;52.088;5.096;2023-05-10T07:38:40;14.80;99.90
65404;DHT22;52014;52.088;5.096;2023-05-10T07:41:06;14.80;99.90
65404;DHT22;52014;52.088;5.096;2023-05-10T07:43:31;14.80;99.90
65404;DHT22;52014;52.088;5.096;2023-05-10T07:45:57;14.80;99.90
65404;DHT22;52014;52.088;5.096;2023-05-10T07:48:22;14.80;99.90
65404;DHT22;52014;52.088;5.096;2023-05-10T07:50:48;14.80;99.90
65404;DHT22;52014;52.088;5.096;2023-05-10T07:53:13;14.80;99.90
65404;DHT22;52014;52.088;5.096;2023-05-10T07:55:39;14.90;99.90
65404;DHT22;52014;52.088;5.096;2023-05-10T07:58:04;14.90;99.90
65404;DHT22;52014;52.088;5.096;2023-05-10T08:00:30;14.90;99.90
65404;DHT22;52014;52.088;5.096;2023-05-10T08:02:55;14.90;99.90
65404;DHT22;52014;52.088;5.096;2023-05-10T08:05:21;15.00;99.90
65404;DHT22;52014;52.088;5.096;2023-05-10T08:07:46;15.00;99.90
65404;DHT22;52014;52.088;5.096;2023-05-10T08:10:11;15.00;99.90
65404;DHT22;52014;52.088;5.096;2023-05-10T08:12:37;15.00;99.90
65404;DHT22;52014;52.088;5.096;2023-05-10T08:15:03;15.00;99.90
65404;DHT22;52014;52.088;5.096;2023-05-10T08:17:29;15.00;99.90
65404;DHT22;52014;52.088;5.096;2023-05-10T08:19:54;15.10;99.90
65404;DHT22;52014;52.088;5.096;2023-05-10T08:22:20;15.00;99.90
65404;DHT22;52014;52.088;5.096;2023-05-10T08:24:45;15.00;99.90
65404;DHT22;52014;52.088;5.096;2023-05-10T08:27:11;15.00;99.90
65404;DHT22;52014;52.088;5.096;2023-05-10T08:29:37;15.10;99.90
65404;DHT22;52014;52.088;5.096;2023-05-10T08:32:02;15.10;99.90
65404;DHT22;52014;52.088;5.096;2023-05-10T08:34:28;15.10;99.90
65404;DHT22;52014;52.088;5.096;2023-05-10T08:36:53;15.20;99.90
65404;DHT22;52014;52.088;5.096;2023-05-10T08:39:18;15.10;99.90
65404;DHT22;52014;52.088;5.096;2023-05-10T08:41:44;15.10;99.90
65404;DHT22;52014;52.088;5.096;2023-05-10T08:44:10;15.20;99.90
65404;DHT22;52014;52.088;5.096;2023-05-10T08:46:37;15.10;99.90
65404;DHT22;52014;52.088;5.096;2023-05-10T08:49:06;15.20;99.90
65404;DHT22;52014;52.088;5.096;2023-05-10T08:51:36;15.20;99.90
65404;DHT22;52014;52.088;5.096;2023-05-10T08:54:05;15.10;99.90
65404;DHT22;52014;52.088;5.096;2023-05-10T08:56:31;15.20;99.90
65404;DHT22;52014;52.088;5.096;2023-05-10T08:58:56;15.10;99.90
65404;DHT22;52014;52.088;5.096;2023-05-10T09:01:22;15.10;99.90
65404;DHT22;52014;52.088;5.096;2023-05-10T09:03:48;15.10;99.90
65404;DHT22;52014;52.088;5.096;2023-05-10T09:06:13;15.20;99.90
65404;DHT22;52014;52.088;5.096;2023-05-10T09:08:39;15.20;99.90
65404;DHT22;52014;52.088;5.096;2023-05-10T09:11:06;15.40;99.90
65404;DHT22;52014;52.088;5.096;2023-05-10T09:13:32;15.40;99.90
65404;DHT22;52014;52.088;5.096;2023-05-10T09:15:58;15.50;99.90
65404;DHT22;52014;52.088;5.096;2023-05-10T09:18:25;15.50;99.90
65404;DHT22;52014;52.088;5.096;2023-05-10T09:20:50;15.60;99.90
65404;DHT22;52014;52.088;5.096;2023-05-10T09:23:16;15.50;99.90
65404;DHT22;52014;52.088;5.096;2023-05-10T09:25:41;15.50;99.90
65404;DHT22;52014;52.088;5.096;2023-05-10T09:28:07;15.50;99.90
65404;DHT22;52014;52.088;5.096;2023-05-10T09:30:33;15.40;99.90
65404;DHT22;52014;52.088;5.096;2023-05-10T09:32:59;15.40;99.90
65404;DHT22;52014;52.088;5.096;2023-05-10T09:35:25;15.40;99.90
65404;DHT22;52014;52.088;5.096;2023-05-10T09:37:55;15.50;99.90
65404;DHT22;52014;52.088;5.096;2023-05-10T09:40:21;15.60;99.90
65404;DHT22;52014;52.088;5.096;2023-05-10T09:42:57;15.60;99.90
65404;DHT22;52014;52.088;5.096;2023-05-10T09:45:24;15.50;99.90
65404;DHT22;52014;52.088;5.096;2023-05-10T09:47:49;15.60;99.90
65404;DHT22;52014;52.088;5.096;2023-05-10T09:50:15;15.50;99.90
65404;DHT22;52014;52.088;5.096;2023-05-10T09:52:53;15.40;99.90
65404;DHT22;52014;52.088;5.096;2023-05-10T09:55:20;15.50;99.90
65404;DHT22;52014;52.088;5.096;2023-05-10T09:57:47;15.50;99.90
65404;DHT22;52014;52.088;5.096;2023-05-10T10:00:19;15.60;99.90
65404;DHT22;52014;52.088;5.096;2023-05-10T10:02:46;15.50;99.90
65404;DHT22;52014;52.088;5.096;2023-05-10T10:05:12;15.50;99.90
65404;DHT22;52014;52.088;5.096;2023-05-10T10:07:38;15.60;99.90
65404;DHT22;52014;52.088;5.096;2023-05-10T10:10:04;15.60;99.90
65404;DHT22;52014;52.088;5.096;2023-05-10T10:12:30;15.60;99.90
65404;DHT22;52014;52.088;5.096;2023-05-10T10:14:56;15.60;99.90
65404;DHT22;52014;52.088;5.096;2023-05-10T10:17:21;15.40;99.90
65404;DHT22;52014;52.088;5.096;2023-05-10T10:19:49;15.40;99.90
65404;DHT22;52014;52.088;5.096;2023-05-10T10:22:14;15.50;99.90
65404;DHT22;52014;52.088;5.096;2023-05-10T10:24:40;15.50;99.90
65404;DHT22;52014;52.088;5.096;2023-05-10T10:27:12;15.50;99.90
65404;DHT22;52014;52.088;5.096;2023-05-10T10:29:57;15.60;99.90
65404;DHT22;52014;52.088;5.096;2023-05-10T10:35:08;15.60;99.90
65404;DHT22;52014;52.088;5.096;2023-05-10T10:37:41;15.70;99.90
65404;DHT22;52014;52.088;5.096;2023-05-10T10:40:24;15.80;99.90
65404;DHT22;52014;52.088;5.096;2023-05-10T10:42:50;15.90;99.90
65404;DHT22;52014;52.088;5.096;2023-05-10T10:45:16;16.20;99.90
65404;DHT22;52014;52.088;5.096;2023-05-10T10:47:42;16.20;99.90
65404;DHT22;52014;52.088;5.096;2023-05-10T10:50:09;16.30;99.90
65404;DHT22;52014;52.088;5.096;2023-05-10T10:52:38;16.40;99.90
65404;DHT22;52014;52.088;5.096;2023-05-10T10:55:05;16.50;99.90
65404;DHT22;52014;52.088;5.096;2023-05-10T10:57:32;16.60;99.90
65404;DHT22;52014;52.088;5.096;2023-05-10T11:02:43;16.50;99.90
65404;DHT22;52014;52.088;5.096;2023-05-10T11:05:23;16.40;99.90
65404;DHT22;52014;52.088;5.096;2023-05-10T11:07:56;16.30;99.90
65404;DHT22;52014;52.088;5.096;2023-05-10T11:10:22;16.20;99.90
65404;DHT22;52014;52.088;5.096;2023-05-10T11:13:06;16.10;99.90
65404;DHT22;52014;52.088;5.096;2023-05-10T11:15:32;16.00;99.90
65404;DHT22;52014;52.088;5.096;2023-05-10T11:17:58;16.00;99.90
65404;DHT22;52014;52.088;5.096;2023-05-10T11:20:27;16.00;99.90
65404;DHT22;52014;52.088;5.096;2023-05-10T11:22:58;16.00;99.90
65404;DHT22;52014;52.088;5.096;2023-05-10T11:25:39;16.10;99.90
65404;DHT22;52014;52.088;5.096;2023-05-10T11:28:05;16.20;99.90
65404;DHT22;52014;52.088;5.096;2023-05-10T11:30:31;16.20;99.90
65404;DHT22;52014;52.088;5.096;2023-05-10T11:32:56;16.30;99.90
65404;DHT22;52014;52.088;5.096;2023-05-10T11:35:22;16.40;99.90
65404;DHT22;52014;52.088;5.096;2023-05-10T11:37:47;16.50;99.90
65404;DHT22;52014;52.088;5.096;2023-05-10T11:40:13;16.50;99.90
65404;DHT22;52014;52.088;5.096;2023-05-10T11:42:39;16.60;99.90
65404;DHT22;52014;52.088;5.096;2023-05-10T11:45:05;16.60;99.90
65404;DHT22;52014;52.088;5.096;2023-05-10T11:47:31;16.50;99.90
65404;DHT22;52014;52.088;5.096;2023-05-10T11:49:56;16.60;99.90
65404;DHT22;52014;52.088;5.096;2023-05-10T11:52:22;16.60;99.90
65404;DHT22;52014;52.088;5.096;2023-05-10T11:54:51;16.60;99.90
65404;DHT22;52014;52.088;5.096;2023-05-10T11:57:18;16.50;99.90
65404;DHT22;52014;52.088;5.096;2023-05-10T11:59:43;16.50;99.90
65404;DHT22;52014;52.088;5.096;2023-05-10T12:02:09;16.50;99.90
65404;DHT22;52014;52.088;5.096;2023-05-10T12:04:35;16.40;99.90
65404;DHT22;52014;52.088;5.096;2023-05-10T12:07:00;16.40;99.90
65404;DHT22;52014;52.088;5.096;2023-05-10T12:09:26;16.40;99.90
65404;DHT22;52014;52.088;5.096;2023-05-10T12:11:54;16.30;99.90
65404;DHT22;52014;52.088;5.096;2023-05-10T12:14:21;16.30;99.90
65404;DHT22;52014;52.088;5.096;2023-05-10T12:16:47;16.20;99.90
65404;DHT22;52014;52.088;5.096;2023-05-10T12:19:12;16.20;99.90
65404;DHT22;52014;52.088;5.096;2023-05-10T12:21:43;16.10;99.90
65404;DHT22;52014;52.088;5.096;2023-05-10T12:24:09;16.10;99.90
65404;DHT22;52014;52.088;5.096;2023-05-10T12:26:35;15.90;99.90
65404;DHT22;52014;52.088;5.096;2023-05-10T12:29:13;15.80;99.90
65404;DHT22;52014;52.088;5.096;2023-05-10T12:31:48;15.80;99.90
65404;DHT22;52014;52.088;5.096;2023-05-10T12:34:22;15.70;99.90
65404;DHT22;52014;52.088;5.096;2023-05-10T12:36:49;15.70;99.90
65404;DHT22;52014;52.088;5.096;2023-05-10T12:39:15;15.70;99.90
65404;DHT22;52014;52.088;5.096;2023-05-10T12:41:40;15.70;99.90
65404;DHT22;52014;52.088;5.096;2023-05-10T12:44:06;15.70;99.90
65404;DHT22;52014;52.088;5.096;2023-05-10T12:46:31;15.70;99.90
65404;DHT22;52014;52.088;5.096;2023-05-10T12:48:57;15.60;99.90
65404;DHT22;52014;52.088;5.096;2023-05-10T12:51:23;15.70;99.90
65404;DHT22;52014;52.088;5.096;2023-05-10T12:53:48;15.80;99.90
65404;DHT22;52014;52.088;5.096;2023-05-10T12:56:13;15.80;99.90
65404;DHT22;52014;52.088;5.096;2023-05-10T12:58:39;15.80;99.90
65404;DHT22;52014;52.088;5.096;2023-05-10T13:01:04;15.80;99.90
65404;DHT22;52014;52.088;5.096;2023-05-10T13:03:30;15.80;99.90
65404;DHT22;52014;52.088;5.096;2023-05-10T13:05:55;15.90;99.90
65404;DHT22;52014;52.088;5.096;2023-05-10T13:08:21;15.90;99.90
65404;DHT22;52014;52.088;5.096;2023-05-10T13:10:46;15.90;99.90
65404;DHT22;52014;52.088;5.096;2023-05-10T13:13:12;15.90;99.90
65404;DHT22;52014;52.088;5.096;2023-05-10T13:15:37;15.90;99.90
65404;DHT22;52014;52.088;5.096;2023-05-10T13:18:03;15.90;99.90
65404;DHT22;52014;52.088;5.096;2023-05-10T13:20:28;16.00;99.90
65404;DHT22;52014;52.088;5.096;2023-05-10T13:22:54;16.00;99.90
65404;DHT22;52014;52.088;5.096;2023-05-10T13:25:19;16.10;99.90
65404;DHT22;52014;52.088;5.096;2023-05-10T13:27:45;16.00;99.90
65404;DHT22;52014;52.088;5.096;2023-05-10T13:30:10;16.00;99.90
65404;DHT22;52014;52.088;5.096;2023-05-10T13:32:36;16.00;99.90
65404;DHT22;52014;52.088;5.096;2023-05-10T13:35:02;16.00;99.90
65404;DHT22;52014;52.088;5.096;2023-05-10T13:37:31;15.90;99.90
65404;DHT22;52014;52.088;5.096;2023-05-10T13:39:57;16.00;99.90
65404;DHT22;52014;52.088;5.096;2023-05-10T13:42:22;16.00;99.90
65404;DHT22;52014;52.088;5.096;2023-05-10T13:44:48;16.00;99.90
65404;DHT22;52014;52.088;5.096;2023-05-10T13:47:14;16.10;99.90
65404;DHT22;52014;52.088;5.096;2023-05-10T13:49:39;16.10;99.90
65404;DHT22;52014;52.088;5.096;2023-05-10T13:52:05;16.10;99.90
65404;DHT22;52014;52.088;5.096;2023-05-10T13:54:35;16.10;99.90
65404;DHT22;52014;52.088;5.096;2023-05-10T13:57:01;16.10;99.90
65404;DHT22;52014;52.088;5.096;2023-05-10T13:59:26;16.10;99.90
65404;DHT22;52014;52.088;5.096;2023-05-10T14:01:51;16.10;99.90
65404;DHT22;52014;52.088;5.096;2023-05-10T14:04:17;16.20;99.90
65404;DHT22;52014;52.088;5.096;2023-05-10T14:06:42;16.20;99.90
65404;DHT22;52014;52.088;5.096;2023-05-10T14:09:08;16.20;99.90
65404;DHT22;52014;52.088;5.096;2023-05-10T14:11:34;16.20;99.90
65404;DHT22;52014;52.088;5.096;2023-05-10T14:13:59;16.20;99.90
65404;DHT22;52014;52.088;5.096;2023-05-10T14:16:24;16.10;99.90
65404;DHT22;52014;52.088;5.096;2023-05-10T14:18:50;16.10;99.90
65404;DHT22;52014;52.088;5.096;2023-05-10T14:21:15;16.10;99.90
65404;DHT22;52014;52.088;5.096;2023-05-10T14:23:41;16.10;99.90
65404;DHT22;52014;52.088;5.096;2023-05-10T14:26:06;16.10;99.90
65404;DHT22;52014;52.088;5.096;2023-05-10T14:28:32;16.00;99.90
65404;DHT22;52014;52.088;5.096;2023-05-10T14:30:58;15.90;99.90
65404;DHT22;52014;52.088;5.096;2023-05-10T14:33:24;15.90;99.90
65404;DHT22;52014;52.088;5.096;2023-05-10T14:35:49;16.00;99.90
65404;DHT22;52014;52.088;5.096;2023-05-10T14:38:15;16.00;99.90
65404;DHT22;52014;52.088;5.096;2023-05-10T14:40:41;16.00;99.90
65404;DHT22;52014;52.088;5.096;2023-05-10T14:43:07;16.10;99.90
65404;DHT22;52014;52.088;5.096;2023-05-10T14:45:32;16.20;99.90
65404;DHT22;52014;52.088;5.096;2023-05-10T14:47:58;16.20;99.90
65404;DHT22;52014;52.088;5.096;2023-05-10T14:50:23;16.20;99.90
65404;DHT22;52014;52.088;5.096;2023-05-10T14:52:48;16.20;99.90
65404;DHT22;52014;52.088;5.096;2023-05-10T14:55:14;16.10;99.90
65404;DHT22;52014;52.088;5.096;2023-05-10T14:57:40;16.10;99.90
65404;DHT22;52014;52.088;5.096;2023-05-10T15:00:05;16.00;99.90
65404;DHT22;52014;52.088;5.096;2023-05-10T15:02:31;16.00;99.90
65404;DHT22;52014;52.088;5.096;2023-05-10T15:04:56;16.10;99.90
65404;DHT22;52014;52.088;5.096;2023-05-10T15:07:23;16.10;99.90
65404;DHT22;52014;52.088;5.096;2023-05-10T15:09:49;16.00;99.90
65404;DHT22;52014;52.088;5.096;2023-05-10T15:12:15;16.00;99.90
65404;DHT22;52014;52.088;5.096;2023-05-10T15:14:40;15.90;99.90
65404;DHT22;52014;52.088;5.096;2023-05-10T15:17:06;16.00;99.90
65404;DHT22;52014;52.088;5.096;2023-05-10T15:19:31;15.90;99.90
65404;DHT22;52014;52.088;5.096;2023-05-10T15:21:58;15.90;99.90
65404;DHT22;52014;52.088;5.096;2023-05-10T15:24:24;15.90;99.90
65404;DHT22;52014;52.088;5.096;2023-05-10T15:26:49;15.90;99.90
65404;DHT22;52014;52.088;5.096;2023-05-10T15:29:15;16.00;99.90
65404;DHT22;52014;52.088;5.096;2023-05-10T15:31:45;16.00;99.90
65404;DHT22;52014;52.088;5.096;2023-05-10T15:34:11;16.00;99.90
65404;DHT22;52014;52.088;5.096;2023-05-10T15:36:36;16.00;99.90
65404;DHT22;52014;52.088;5.096;2023-05-10T15:39:02;15.90;99.90
65404;DHT22;52014;52.088;5.096;2023-05-10T15:41:28;16.00;99.90
65404;DHT22;52014;52.088;5.096;2023-05-10T15:43:54;16.00;99.90
65404;DHT22;52014;52.088;5.096;2023-05-10T15:46:19;16.00;99.90
65404;DHT22;52014;52.088;5.096;2023-05-10T15:48:44;16.00;99.90
65404;DHT22;52014;52.088;5.096;2023-05-10T15:51:10;16.10;99.90
65404;DHT22;52014;52.088;5.096;2023-05-10T15:53:35;16.00;99.90
65404;DHT22;52014;52.088;5.096;2023-05-10T15:56:01;16.10;99.90
65404;DHT22;52014;52.088;5.096;2023-05-10T15:58:26;16.10;99.90
65404;DHT22;52014;52.088;5.096;2023-05-10T16:00:52;16.10;99.90
65404;DHT22;52014;52.088;5.096;2023-05-10T16:03:17;16.10;99.90
65404;DHT22;52014;52.088;5.096;2023-05-10T16:05:42;16.10;99.90
65404;DHT22;52014;52.088;5.096;2023-05-10T16:08:08;16.10;99.90
65404;DHT22;52014;52.088;5.096;2023-05-10T16:10:33;16.10;99.90
65404;DHT22;52014;52.088;5.096;2023-05-10T16:12:59;16.20;99.90
65404;DHT22;52014;52.088;5.096;2023-05-10T16:15:24;16.20;99.90
65404;DHT22;52014;52.088;5.096;2023-05-10T16:17:51;16.30;99.90
65404;DHT22;52014;52.088;5.096;2023-05-10T16:20:16;16.20;99.90
65404;DHT22;52014;52.088;5.096;2023-05-10T16:22:42;16.30;99.90
65404;DHT22;52014;52.088;5.096;2023-05-10T16:25:08;16.30;99.90
65404;DHT22;52014;52.088;5.096;2023-05-10T16:27:34;16.30;99.90
65404;DHT22;52014;52.088;5.096;2023-05-10T16:29:59;16.20;99.90
65404;DHT22;52014;52.088;5.096;2023-05-10T16:32:25;16.20;99.90
65404;DHT22;52014;52.088;5.096;2023-05-10T16:34:50;16.30;99.90
65404;DHT22;52014;52.088;5.096;2023-05-10T16:37:17;16.30;99.90
65404;DHT22;52014;52.088;5.096;2023-05-10T16:39:43;16.30;99.90
65404;DHT22;52014;52.088;5.096;2023-05-10T16:42:08;16.30;99.90
65404;DHT22;52014;52.088;5.096;2023-05-10T16:44:33;16.30;99.90
65404;DHT22;52014;52.088;5.096;2023-05-10T16:47:00;16.20;99.90
65404;DHT22;52014;52.088;5.096;2023-05-10T16:49:25;16.20;99.90
65404;DHT22;52014;52.088;5.096;2023-05-10T16:51:51;16.20;99.90
65404;DHT22;52014;52.088;5.096;2023-05-10T16:54:16;16.10;99.90
65404;DHT22;52014;52.088;5.096;2023-05-10T16:56:42;16.10;99.90
65404;DHT22;52014;52.088;5.096;2023-05-10T16:59:08;16.00;99.90
65404;DHT22;52014;52.088;5.096;2023-05-10T17:01:33;15.90;99.90
65404;DHT22;52014;52.088;5.096;2023-05-10T17:03:59;15.90;99.90
65404;DHT22;52014;52.088;5.096;2023-05-10T17:06:24;16.00;99.90
65404;DHT22;52014;52.088;5.096;2023-05-10T17:08:50;15.90;99.90
65404;DHT22;52014;52.088;5.096;2023-05-10T17:11:15;15.80;99.90
65404;DHT22;52014;52.088;5.096;2023-05-10T17:13:41;15.80;99.90
65404;DHT22;52014;52.088;5.096;2023-05-10T17:16:06;15.70;99.90
65404;DHT22;52014;52.088;5.096;2023-05-10T17:18:32;15.70;99.90
65404;DHT22;52014;52.088;5.096;2023-05-10T17:20:57;15.70;99.90
65404;DHT22;52014;52.088;5.096;2023-05-10T17:23:23;15.70;99.90
65404;DHT22;52014;52.088;5.096;2023-05-10T17:25:48;15.70;99.90
65404;DHT22;52014;52.088;5.096;2023-05-10T17:28:14;15.60;99.90
65404;DHT22;52014;52.088;5.096;2023-05-10T17:30:39;15.60;99.90
65404;DHT22;52014;52.088;5.096;2023-05-10T17:33:05;15.60;99.90
65404;DHT22;52014;52.088;5.096;2023-05-10T17:35:30;15.50;99.90
65404;DHT22;52014;52.088;5.096;2023-05-10T17:37:56;15.50;99.90
65404;DHT22;52014;52.088;5.096;2023-05-10T17:40:21;15.50;99.90
65404;DHT22;52014;52.088;5.096;2023-05-10T17:42:47;15.50;99.90
65404;DHT22;52014;52.088;5.096;2023-05-10T17:45:13;15.50;99.90
65404;DHT22;52014;52.088;5.096;2023-05-10T17:47:38;15.50;99.90
65404;DHT22;52014;52.088;5.096;2023-05-10T17:50:04;15.50;99.90
65404;DHT22;52014;52.088;5.096;2023-05-10T17:52:30;15.50;99.90
65404;DHT22;52014;52.088;5.096;2023-05-10T17:54:55;15.60;99.90
65404;DHT22;52014;52.088;5.096;2023-05-10T17:57:21;15.60;99.90
65404;DHT22;52014;52.088;5.096;2023-05-10T17:59:47;15.60;99.90
65404;DHT22;52014;52.088;5.096;2023-05-10T18:02:13;15.60;99.90
65404;DHT22;52014;52.088;5.096;2023-05-10T18:04:39;15.60;99.90
65404;DHT22;52014;52.088;5.096;2023-05-10T18:07:04;15.60;99.90
65404;DHT22;52014;52.088;5.096;2023-05-10T18:09:30;15.60;99.90
65404;DHT22;52014;52.088;5.096;2023-05-10T18:11:56;15.60;99.90
65404;DHT22;52014;52.088;5.096;2023-05-10T18:14:21;15.60;99.90
65404;DHT22;52014;52.088;5.096;2023-05-10T18:16:47;15.50;99.90
65404;DHT22;52014;52.088;5.096;2023-05-10T18:19:12;15.50;99.90
65404;DHT22;52014;52.088;5.096;2023-05-10T18:21:38;15.50;99.90
65404;DHT22;52014;52.088;5.096;2023-05-10T18:24:03;15.50;99.90
65404;DHT22;52014;52.088;5.096;2023-05-10T18:26:29;15.50;99.90
65404;DHT22;52014;52.088;5.096;2023-05-10T18:28:54;15.50;99.90
65404;DHT22;52014;52.088;5.096;2023-05-10T18:31:20;15.50;99.90
65404;DHT22;52014;52.088;5.096;2023-05-10T18:33:45;15.50;99.90
65404;DHT22;52014;52.088;5.096;2023-05-10T18:36:11;15.60;99.90
65404;DHT22;52014;52.088;5.096;2023-05-10T18:38:36;15.50;99.90
65404;DHT22;52014;52.088;5.096;2023-05-10T18:41:02;15.60;99.90
65404;DHT22;52014;52.088;5.096;2023-05-10T18:43:27;15.60;99.90
65404;DHT22;52014;52.088;5.096;2023-05-10T18:45:53;15.50;99.90
65404;DHT22;52014;52.088;5.096;2023-05-10T18:48:19;15.50;99.90
65404;DHT22;52014;52.088;5.096;2023-05-10T18:50:44;15.50;99.90
65404;DHT22;52014;52.088;5.096;2023-05-10T18:53:10;15.50;99.90
65404;DHT22;52014;52.088;5.096;2023-05-10T18:55:35;15.50;99.90
65404;DHT22;52014;52.088;5.096;2023-05-10T18:58:00;15.40;99.90
65404;DHT22;52014;52.088;5.096;2023-05-10T19:00:26;15.40;99.90
65404;DHT22;52014;52.088;5.096;2023-05-10T19:02:51;15.40;99.90
65404;DHT22;52014;52.088;5.096;2023-05-10T19:05:19;15.40;99.90
65404;DHT22;52014;52.088;5.096;2023-05-10T19:07:45;15.40;99.90
65404;DHT22;52014;52.088;5.096;2023-05-10T19:10:11;15.40;99.90
65404;DHT22;52014;52.088;5.096;2023-05-10T19:12:37;15.30;99.90
65404;DHT22;52014;52.088;5.096;2023-05-10T19:15:03;15.30;99.90